»·PEaware :: N335AK KSLC-KSAC

N335AK :: KSLC-KSAC

FLIGHT INFORMATION

Flight Status: Arrived
Operator: Privately registered:
United States
More flights under this callsign
Pilot: Gabor H. (24209)
Aircraft: Unknown
(EPIC)
More flights by this aircraft type
Origin: KSLC Salt Lake City Intl
United States
Destination: KSAC Sacramento Executive
United States
More flights between these airports :: More routes between these airports
Route: +SLC4 DEZRT BAM J32 FMG V6 SAC
File this flight plan on PilotEdge
Remarks:
Altitude:
(Current/Filed)
34,000ft
Speed:
(Current/Filed)
325kts
Departed: 15-Nov-20 02:28 PM
Arrived: 15-Nov-20 04:30 PM
Distance/Time
Traveled:
460nm/2:02
Distance/Time
To Go:
Arrived

Flight Plot

Page will automatically refresh every two minutes.

Flight plan parsing failed; only flown route is shown


Map Options




Map Legend


Flown Route
Filed Route
Departure Airport
Arrival Airport
Navaid (VOR, NDB)
Fix

Horizontal Profiles

Position Reports

Time Latitude Longitude Heading Altitude Ground
Speed
15-Nov-20 14:09 40.775355 -111.959547 176 4223ft 0kts
15-Nov-20 14:10 40.775356 -111.959547 176 4222ft 0kts
15-Nov-20 14:11 40.775356 -111.959547 176 4222ft 0kts
15-Nov-20 14:12 40.775356 -111.959547 176 4222ft 0kts
15-Nov-20 14:13 40.775356 -111.959547 176 4222ft 0kts
15-Nov-20 14:14 40.775356 -111.959547 176 4222ft 0kts
15-Nov-20 14:15 40.775356 -111.959547 176 4222ft 0kts
15-Nov-20 14:16 40.775356 -111.959547 176 4222ft 0kts
15-Nov-20 14:17 40.775356 -111.959547 176 4222ft 0kts
15-Nov-20 14:18 40.775356 -111.959547 176 4222ft 0kts
15-Nov-20 14:19 40.775356 -111.959547 176 4222ft 0kts
15-Nov-20 14:20 40.775356 -111.959547 176 4222ft 0kts
15-Nov-20 14:21 40.775356 -111.959547 176 4222ft 0kts
15-Nov-20 14:22 40.775355 -111.959547 176 4223ft 0kts
15-Nov-20 14:23 40.779161 -111.959914 352 4223ft 29kts
15-Nov-20 14:24 40.786847 -111.959988 2 4219ft 34kts
15-Nov-20 14:25 40.795552 -111.960011 358 4219ft 24kts
15-Nov-20 14:26 40.798817 -111.960482 291 4219ft 0kts
15-Nov-20 14:26 40.798817 -111.960482 291 4219ft 0kts
15-Nov-20 14:27 40.795815 -111.962043 178 4219ft 73kts
15-Nov-20 14:28 40.758776 -111.973125 239 6076ft 185kts
15-Nov-20 14:29 40.783640 -112.036482 305 8611ft 221kts
15-Nov-20 14:30 40.824077 -112.100071 306 10002ft 233kts
15-Nov-20 14:31 40.865934 -112.166203 307 11286ft 229kts
15-Nov-20 14:32 40.906229 -112.229610 306 13785ft 229kts
15-Nov-20 14:33 40.938506 -112.297263 254 16173ft 222kts
15-Nov-20 14:34 40.922424 -112.375742 257 18288ft 223kts
15-Nov-20 14:35 40.908304 -112.456033 258 20064ft 225kts
15-Nov-20 14:36 40.894150 -112.536752 258 21539ft 227kts
15-Nov-20 14:37 40.879835 -112.618049 259 22772ft 229kts
15-Nov-20 14:38 40.864958 -112.702233 258 23264ft 249kts
15-Nov-20 14:39 40.848515 -112.794780 258 23260ft 265kts
15-Nov-20 14:40 40.838803 -112.892136 266 23257ft 270kts
15-Nov-20 14:41 40.833989 -112.987722 267 24250ft 246kts
15-Nov-20 14:42 40.829633 -113.073916 267 25617ft 225kts
15-Nov-20 14:43 40.825542 -113.153689 267 26983ft 210kts
15-Nov-20 14:44 40.821644 -113.228745 268 28130ft 205kts
15-Nov-20 14:45 40.817665 -113.304532 268 28955ft 208kts
15-Nov-20 14:46 40.813608 -113.380795 268 29694ft 208kts
15-Nov-20 14:47 40.809575 -113.455647 267 30641ft 201kts
15-Nov-20 14:48 40.805640 -113.527696 268 31576ft 193kts
15-Nov-20 14:49 40.801822 -113.596817 268 32499ft 185kts
15-Nov-20 14:50 40.798092 -113.663811 267 33165ft 188kts
15-Nov-20 14:51 40.794094 -113.734849 267 33672ft 195kts
15-Nov-20 14:52 40.789999 -113.806642 267 34199ft 197kts
15-Nov-20 14:53 40.785705 -113.881437 267 34261ft 211kts
15-Nov-20 14:54 40.781107 -113.960451 267 34258ft 219kts
15-Nov-20 14:55 40.776435 -114.039617 267 34256ft 217kts
15-Nov-20 14:56 40.771637 -114.119976 267 34254ft 222kts
15-Nov-20 14:57 40.766739 -114.201135 267 34252ft 222kts
15-Nov-20 14:58 40.761777 -114.282532 267 34251ft 222kts
15-Nov-20 14:59 40.756761 -114.363586 267 34250ft 222kts
15-Nov-20 15:00 40.751700 -114.444586 267 34248ft 221kts
15-Nov-20 15:01 40.746600 -114.525201 267 34247ft 221kts
15-Nov-20 15:02 40.741453 -114.605747 267 34246ft 220kts
15-Nov-20 15:03 40.736250 -114.686370 266 34261ft 221kts
15-Nov-20 15:04 40.730910 -114.768179 267 34262ft 227kts
15-Nov-20 15:05 40.725365 -114.852113 266 34263ft 231kts
15-Nov-20 15:06 40.719698 -114.937024 266 34265ft 233kts
15-Nov-20 15:07 40.713928 -115.022388 267 34264ft 234kts
15-Nov-20 15:08 40.708075 -115.108195 267 34263ft 236kts
15-Nov-20 15:09 40.702118 -115.194342 267 34261ft 237kts
15-Nov-20 15:10 40.696055 -115.281277 267 34261ft 238kts
15-Nov-20 15:11 40.689923 -115.368260 267 34259ft 239kts
15-Nov-20 15:12 40.683708 -115.455282 267 34257ft 238kts
15-Nov-20 15:13 40.677460 -115.542130 267 34256ft 238kts
15-Nov-20 15:14 40.671133 -115.628910 267 34255ft 237kts
15-Nov-20 15:15 40.664770 -115.715342 267 34269ft 236kts
15-Nov-20 15:16 40.658374 -115.801340 267 34267ft 235kts
15-Nov-20 15:17 40.651940 -115.887025 266 34266ft 234kts
15-Nov-20 15:18 40.645469 -115.972158 267 34265ft 234kts
15-Nov-20 15:19 40.638954 -116.057224 267 34264ft 233kts
15-Nov-20 15:20 40.632412 -116.141895 267 34262ft 233kts
15-Nov-20 15:21 40.625788 -116.226583 267 34257ft 232kts
15-Nov-20 15:22 40.619119 -116.311150 267 34249ft 232kts
15-Nov-20 15:23 40.612396 -116.395573 267 34241ft 231kts
15-Nov-20 15:24 40.605626 -116.479859 267 34239ft 231kts
15-Nov-20 15:25 40.598811 -116.563849 267 34238ft 230kts
15-Nov-20 15:26 40.591971 -116.647490 267 34237ft 230kts
15-Nov-20 15:27 40.585021 -116.731568 266 34251ft 232kts
15-Nov-20 15:28 40.578002 -116.815923 266 34250ft 233kts
15-Nov-20 15:29 40.570860 -116.900750 266 34248ft 233kts
15-Nov-20 15:30 40.553006 -116.983749 257 34246ft 238kts
15-Nov-20 15:31 40.531685 -117.065918 258 34246ft 238kts
15-Nov-20 15:32 40.510145 -117.148403 258 34244ft 238kts
15-Nov-20 15:33 40.488574 -117.230718 258 34243ft 238kts
15-Nov-20 15:34 40.466971 -117.312862 258 34242ft 238kts
15-Nov-20 15:35 40.445295 -117.395011 258 34241ft 238kts
15-Nov-20 15:36 40.423653 -117.476763 258 34240ft 237kts
15-Nov-20 15:37 40.401957 -117.558461 258 34239ft 237kts
15-Nov-20 15:38 40.380240 -117.639944 258 34237ft 236kts
15-Nov-20 15:39 40.358402 -117.721627 258 34252ft 238kts
15-Nov-20 15:40 40.336417 -117.803592 258 34251ft 240kts
15-Nov-20 15:41 40.314152 -117.886335 258 34252ft 240kts
15-Nov-20 15:42 40.291934 -117.968614 258 34258ft 240kts
15-Nov-20 15:43 40.269614 -118.051006 257 34263ft 240kts
15-Nov-20 15:44 40.247222 -118.133398 258 34264ft 240kts
15-Nov-20 15:45 40.224843 -118.215483 257 34263ft 240kts
15-Nov-20 15:46 40.202362 -118.297650 258 34262ft 239kts
15-Nov-20 15:47 40.179939 -118.379361 258 34261ft 239kts
15-Nov-20 15:48 40.157431 -118.461092 258 34259ft 238kts
15-Nov-20 15:49 40.134871 -118.542778 258 34259ft 238kts
15-Nov-20 15:50 40.102241 -118.619732 245 34258ft 248kts
15-Nov-20 15:51 40.062444 -118.693343 245 34272ft 250kts
15-Nov-20 15:52 40.022030 -118.767634 244 34271ft 251kts
15-Nov-20 15:53 39.981509 -118.841944 244 34270ft 252kts
15-Nov-20 15:54 39.940867 -118.916291 244 34269ft 252kts
15-Nov-20 15:55 39.900059 -118.990776 244 34267ft 252kts
15-Nov-20 15:56 39.859494 -119.064617 244 34263ft 251kts
15-Nov-20 15:57 39.818945 -119.138289 244 34264ft 250kts
15-Nov-20 15:58 39.778638 -119.211350 244 34266ft 249kts
15-Nov-20 15:59 39.738301 -119.284280 244 34269ft 248kts
15-Nov-20 16:00 39.697982 -119.357016 244 34269ft 248kts
15-Nov-20 16:01 39.657682 -119.429565 244 34267ft 248kts
15-Nov-20 16:02 39.617404 -119.501892 244 34266ft 247kts
15-Nov-20 16:04 39.577188 -119.573943 244 34266ft 245kts
15-Nov-20 16:05 39.537233 -119.645382 244 34266ft 244kts
15-Nov-20 16:06 39.496571 -119.717286 243 33869ft 261kts
15-Nov-20 16:07 39.450702 -119.797990 241 32335ft 294kts
15-Nov-20 16:08 39.400793 -119.885554 241 30714ft 310kts
15-Nov-20 16:09 39.348949 -119.976262 240 29044ft 319kts
15-Nov-20 16:10 39.295717 -120.069150 240 27336ft 324kts
15-Nov-20 16:11 39.242027 -120.162567 239 25618ft 327kts
15-Nov-20 16:12 39.187859 -120.256492 239 24365ft 318kts
15-Nov-20 16:13 39.136764 -120.346850 240 23386ft 318kts
15-Nov-20 16:14 39.083484 -120.441062 239 21475ft 324kts
15-Nov-20 16:15 39.031495 -120.532753 239 19654ft 314kts
15-Nov-20 16:16 38.980211 -120.622949 238 17884ft 314kts
15-Nov-20 16:17 38.928313 -120.713954 237 16151ft 316kts
15-Nov-20 16:18 38.876658 -120.804282 237 15448ft 313kts
15-Nov-20 16:19 38.825624 -120.893264 237 13444ft 308kts
15-Nov-20 16:19 38.783477 -120.966572 236 11776ft 306kts
15-Nov-20 16:21 38.726801 -121.064845 237 10024ft 265kts
15-Nov-20 16:21 38.715299 -121.136497 273 8878ft 260kts
15-Nov-20 16:23 38.717202 -121.238956 273 7310ft 230kts
15-Nov-20 16:23 38.693561 -121.298758 233 5781ft 239kts
15-Nov-20 16:25 38.641244 -121.365455 226 3418ft 227kts
15-Nov-20 16:26 38.598750 -121.419052 223 1589ft 195kts
15-Nov-20 16:26 38.570224 -121.447276 213 1047ft 133kts
15-Nov-20 16:28 38.534610 -121.476244 214 472ft 96kts
15-Nov-20 16:28 38.516226 -121.491606 213 26ft 80kts
15-Nov-20 16:29 38.511376 -121.496906 270 22ft 0kts
15-Nov-20 16:30 38.513584 -121.495941 279 24ft 16kts
15-Nov-20 16:31 38.514856 -121.498430 220 23ft 0kts
15-Nov-20 16:32 38.514856 -121.498430 220 23ft 0kts
15-Nov-20 16:33 38.514856 -121.498430 220 23ft 0kts
15-Nov-20 16:34 38.514856 -121.498430 220 23ft 0kts
15-Nov-20 16:35 38.514856 -121.498430 220 23ft 0kts
15-Nov-20 16:36 38.514856 -121.498430 220 23ft 0kts

Navigation Log

Ident Type
Flight plan parsing failed, navigation log unavailable